Flagstaff, AZ

6:39 PM MST en Marzo 06, 2015 (GMT -0700)
Mountainaire | Change Station
CLOSE
Current Station
Estación meteorológica personal
Location: Flagstaff, AZ
Altura: 6818 ft
Estaciones meteorológicas cercanas

Alt 6818 ft 35.08 °N, 111.67 °W | Updated 8 minutes ago

Clear
Despejado
44.1 ° F
Sensación térmica 44 ° F
N
2.0
Viento Variable Viento desde Norte
Gusts 3.0 mph

Hoy
Alta -- | Baja -- ° F
--% Posibilidad de precipitaciones
Ayer
Alta -- | Baja -- ° F
Precip. -- pul
6:49 AM 6:26 PM
Luna llena, 98% visible
Presión 30.22 pul
Visibilidad 10.0 Millas
Nubes Despejado
Vientos helados 44 ° F
Punto de rocío 12 ° F
Humedad 27%
Precipitaciones pul
Espesor de la nieve No disponible.
UV 0 de una escala de 12
Polen 7.50 de una escala de 12
Calidad del aire No disponible.
Flu Activity No disponible.
METAR KFLG 070057Z 06011KT 10SM CLR 06/M09 A3027 RMK AO2 SLP231 T00611089

More Conditions Fewer Conditions

Presión 30.22 pul
Visibilidad 10.0 Millas
Nubes Despejado
Vientos helados 44 ° F
Punto de rocío 12 ° F
Humedad 27%
Precipitaciones pul
Espesor de la nieve No disponible.
UV 0 de una escala de 12
Polen 7.50 de una escala de 12
Calidad del aire No disponible.
Flu Activity No disponible.
METAR KFLG 070057Z 06011KT 10SM CLR 06/M09 A3027 RMK AO2 SLP231 T00611089

More Conditions Fewer Conditions

10-Day Weather Forecast

Almanac

Astronomía

Mar. 06, 2015 Salida Puesta
Hora real
Crepúsculo civil
Crepúsculo náutico
Crepúsculo astronómico
Luna
Horas de luz
Horas de luz
Tomorrow will be .
, % of the Moon is Illuminated

Extremos de hoy

Máximos del estado Bajos del estado

Community

WunderPhotos

Upload Photos

1,803,491 ¡fotos cargadas!

WunderBlogs® & News

Nearby

Calidad del aire

  Calidad del aire Índice AQ Contaminante
Not available.

Grosos de nieve

Estación Profundido Altura

Actividad de terremotos

Ciudad Distance Mag. Tiempo y dato
Magnitud mínima muestra es 2,5.

Temperaturas de aguas costeras

Lugar Temperatura

Estaciones meteorológicas cercanas